Time;durP1;ratioP1;P1;durP2;ratioP2;P2;SDS_P1;SDS_P2;PMS_P1;PMS_P2;Temp;Humidity;BMP_temperature;BMP_pressure;BME280_temperature;BME280_humidity;BME280_pressure;Samples;Min_cycle;Max_cycle;Signal;HPM_P1;HPM_P2
2022/04/30 00:01:26;;;;;;;9.60;6.93;;;;;;;;;;5030957;28;20262;-72
2022/04/30 00:03:57;;;;;;;9.97;7.17;;;;;;;;;;5025410;28;20544;-73
2022/04/30 00:06:26;;;;;;;10.67;6.77;;;;;;;;;;5024776;28;20204;-73
2022/04/30 00:08:58;;;;;;;11.93;7.07;;;;;;;;;;5031127;28;20709;-73
2022/04/30 00:11:26;;;;;;;9.10;7.00;;;;;;;;;;5029231;28;20663;-73
2022/04/30 00:13:55;;;;;;;9.37;6.53;;;;;;;;;;5031795;28;20204;-72
2022/04/30 00:16:23;;;;;;;12.77;7.43;;;;;;;;;;5035684;28;20218;-72
2022/04/30 00:18:55;;;;;;;10.90;6.97;;;;;;;;;;5035298;28;20638;-73
2022/04/30 00:21:24;;;;;;;10.73;7.17;;;;;;;;;;5036430;28;20274;-73
2022/04/30 00:23:52;;;;;;;9.27;6.70;;;;;;;;;;5027844;28;20215;-72
2022/04/30 00:26:21;;;;;;;9.00;7.57;;;;;;;;;;5036005;28;20223;-73
2022/04/30 00:28:52;;;;;;;9.07;7.10;;;;;;;;;;5033863;28;20224;-72
2022/04/30 00:31:20;;;;;;;9.33;7.53;;;;;;;;;;5034959;28;20609;-73
2022/04/30 00:33:49;;;;;;;8.13;7.27;;;;;;;;;;5035152;28;20245;-72
2022/04/30 00:36:18;;;;;;;9.53;6.77;;;;;;;;;;5036645;28;20200;-72
2022/04/30 00:38:47;;;;;;;11.80;7.33;;;;;;;;;;5035057;28;20220;-72
2022/04/30 00:41:15;;;;;;;10.57;7.03;;;;;;;;;;5033936;28;20212;-73
2022/04/30 00:43:44;;;;;;;11.03;7.57;;;;;;;;;;5035034;28;20200;-73
2022/04/30 00:46:14;;;;;;;10.77;7.20;;;;;;;;;;5033035;28;20258;-72
2022/04/30 00:48:42;;;;;;;10.53;7.20;;;;;;;;;;5036239;28;20240;-73
2022/04/30 00:51:11;;;;;;;11.97;7.60;;;;;;;;;;5034376;28;20639;-72
2022/04/30 00:53:42;;;;;;;9.60;7.30;;;;;;;;;;5033453;28;20208;-72
2022/04/30 00:56:11;;;;;;;9.93;7.30;;;;;;;;;;5035169;28;20204;-72
2022/04/30 00:58:41;;;;;;;9.20;7.20;;;;;;;;;;5033663;28;20223;-73
2022/04/30 01:01:10;;;;;;;12.50;8.07;;;;;;;;;;5034189;28;20220;-72
2022/04/30 01:03:39;;;;;;;11.30;6.97;;;;;;;;;;5032602;28;20212;-72
2022/04/30 01:06:09;;;;;;;10.37;7.33;;;;;;;;;;5034898;28;20208;-73
2022/04/30 01:08:38;;;;;;;10.67;6.87;;;;;;;;;;5034759;28;20215;-73
2022/04/30 01:11:08;;;;;;;11.07;7.37;;;;;;;;;;5033111;28;20208;-73
2022/04/30 01:13:37;;;;;;;10.63;7.33;;;;;;;;;;5031347;28;20251;-73
2022/04/30 01:16:07;;;;;;;8.43;6.87;;;;;;;;;;5034736;28;20663;-73
2022/04/30 01:18:36;;;;;;;10.13;7.27;;;;;;;;;;5034033;28;20224;-72
2022/04/30 01:21:10;;;;;;;9.80;7.47;;;;;;;;;;5032940;28;20254;-72
2022/04/30 01:23:42;;;;;;;10.87;7.10;;;;;;;;;;5032218;28;20602;-73
2022/04/30 01:26:10;;;;;;;9.37;7.33;;;;;;;;;;5034019;28;20195;-73
2022/04/30 01:28:39;;;;;;;10.30;7.10;;;;;;;;;;5034034;28;20219;-73
2022/04/30 01:37:22;;;;;;;9.33;7.77;;;;;;;;;;5033941;28;20207;-73
2022/04/30 01:39:41;;;;;;;8.03;7.20;;;;;;;;;;4998634;28;20204;-72
2022/04/30 01:42:11;;;;;;;10.20;7.30;;;;;;;;;;5032190;28;20246;-73
2022/04/30 01:44:41;;;;;;;9.93;7.50;;;;;;;;;;5033559;28;20222;-72
2022/04/30 01:47:10;;;;;;;9.80;7.37;;;;;;;;;;5033798;28;20224;-72
2022/04/30 01:49:38;;;;;;;10.10;7.67;;;;;;;;;;5029856;28;20210;-73
2022/04/30 01:52:08;;;;;;;10.50;7.57;;;;;;;;;;5031447;28;20278;-72
2022/04/30 01:54:36;;;;;;;9.60;7.53;;;;;;;;;;5033555;28;20200;-73
2022/04/30 01:57:06;;;;;;;11.23;8.37;;;;;;;;;;5030799;28;20577;-73
2022/04/30 01:59:35;;;;;;;10.00;7.80;;;;;;;;;;5032816;28;20208;-72
2022/04/30 02:02:04;;;;;;;9.90;8.07;;;;;;;;;;5032349;28;20597;-72
2022/04/30 02:04:35;;;;;;;13.70;8.67;;;;;;;;;;5033497;28;20221;-73
2022/04/30 02:07:03;;;;;;;17.03;9.23;;;;;;;;;;5033518;28;20230;-73
2022/04/30 02:09:32;;;;;;;12.60;8.50;;;;;;;;;;5031420;28;20200;-72
2022/04/30 02:12:01;;;;;;;14.77;8.90;;;;;;;;;;5032683;28;20219;-73
2022/04/30 02:14:31;;;;;;;19.13;7.73;;;;;;;;;;5033094;28;20628;-72
2022/04/30 02:17:00;;;;;;;17.10;8.60;;;;;;;;;;5031283;28;20234;-73
2022/04/30 02:20:18;;;;;;;15.77;8.30;;;;;;;;;;5032625;28;20207;-73
2022/04/30 02:22:18;;;;;;;14.20;9.00;;;;;;;;;;5030056;28;20227;-73
2022/04/30 02:24:47;;;;;;;10.80;7.87;;;;;;;;;;5033430;28;20604;-73
2022/04/30 02:27:15;;;;;;;13.23;8.60;;;;;;;;;;5032672;28;20606;-73
2022/04/30 02:29:45;;;;;;;12.17;9.30;;;;;;;;;;5033511;28;20208;-73
2022/04/30 02:32:14;;;;;;;16.37;8.10;;;;;;;;;;5033050;28;20837;-73
2022/04/30 02:34:42;;;;;;;12.87;8.70;;;;;;;;;;5031441;28;20207;-72
2022/04/30 02:37:13;;;;;;;10.80;8.43;;;;;;;;;;5028807;28;20626;-73
2022/04/30 02:39:44;;;;;;;12.07;8.70;;;;;;;;;;5031846;28;20204;-72
2022/04/30 02:42:13;;;;;;;10.97;9.13;;;;;;;;;;5030615;28;20216;-73
2022/04/30 02:44:42;;;;;;;11.47;8.93;;;;;;;;;;5029468;28;20206;-72
2022/04/30 02:47:13;;;;;;;11.63;8.77;;;;;;;;;;5033381;28;20220;-72
2022/04/30 02:49:41;;;;;;;15.57;8.60;;;;;;;;;;5033056;28;20211;-72
2022/04/30 02:52:10;;;;;;;12.97;8.80;;;;;;;;;;5033642;28;20199;-73
2022/04/30 02:54:38;;;;;;;9.90;8.70;;;;;;;;;;5034191;28;20199;-73
2022/04/30 02:57:07;;;;;;;14.70;8.60;;;;;;;;;;5032851;28;20222;-73
2022/04/30 02:59:53;;;;;;;9.40;8.10;;;;;;;;;;5032749;28;20215;-73
2022/04/30 03:02:23;;;;;;;11.00;9.00;;;;;;;;;;5027097;28;20306;-73
2022/04/30 03:04:53;;;;;;;11.23;8.90;;;;;;;;;;5023380;28;20203;-72
2022/04/30 03:07:22;;;;;;;9.93;8.67;;;;;;;;;;5028904;28;20654;-73
2022/04/30 03:09:51;;;;;;;12.97;9.30;;;;;;;;;;5022471;28;20236;-73
2022/04/30 03:12:20;;;;;;;12.47;9.03;;;;;;;;;;5029514;28;20636;-73
2022/04/30 03:14:49;;;;;;;11.27;8.53;;;;;;;;;;5025515;28;20208;-73
2022/04/30 03:22:52;;;;;;;14.30;8.87;;;;;;;;;;5021029;28;20222;-72
2022/04/30 03:25:20;;;;;;;12.67;8.60;;;;;;;;;;5031783;28;20204;-72
2022/04/30 03:27:55;;;;;;;14.03;9.40;;;;;;;;;;5032496;28;20251;-73
2022/04/30 03:30:23;;;;;;;10.53;8.70;;;;;;;;;;5031507;28;20210;-73
2022/04/30 03:32:52;;;;;;;12.17;9.63;;;;;;;;;;5032875;28;20207;-72
2022/04/30 03:35:22;;;;;;;11.93;9.13;;;;;;;;;;5031342;28;20248;-73
2022/04/30 03:37:50;;;;;;;12.47;9.43;;;;;;;;;;5031899;28;20277;-73
2022/04/30 03:40:19;;;;;;;11.90;9.60;;;;;;;;;;5030153;28;20211;-73
2022/04/30 03:42:48;;;;;;;12.73;9.97;;;;;;;;;;5031481;28;20224;-73
2022/04/30 03:45:17;;;;;;;12.53;10.07;;;;;;;;;;5030343;28;20203;-73
2022/04/30 03:47:45;;;;;;;13.77;9.87;;;;;;;;;;5022043;28;20310;-73
2022/04/30 03:50:14;;;;;;;11.93;10.13;;;;;;;;;;5029511;28;20207;-73
2022/04/30 03:52:44;;;;;;;11.90;10.20;;;;;;;;;;5013581;28;20208;-73
2022/04/30 03:55:14;;;;;;;14.70;9.80;;;;;;;;;;5031159;28;20265;-73
2022/04/30 03:57:42;;;;;;;13.20;10.40;;;;;;;;;;5026736;28;20223;-72
2022/04/30 04:00:13;;;;;;;14.43;10.80;;;;;;;;;;5031364;28;20233;-73
2022/04/30 04:02:43;;;;;;;14.00;10.57;;;;;;;;;;5029865;28;20187;-73
2022/04/30 04:05:12;;;;;;;12.10;10.20;;;;;;;;;;5028047;28;20663;-73
2022/04/30 04:07:41;;;;;;;13.70;10.40;;;;;;;;;;5033210;28;20223;-72
2022/04/30 04:10:12;;;;;;;18.03;11.37;;;;;;;;;;5047896;28;20207;-73
2022/04/30 04:12:41;;;;;;;12.87;10.50;;;;;;;;;;5020788;28;20218;-73
2022/04/30 04:17:56;;;;;;;14.63;10.77;;;;;;;;;;5032245;28;20254;-73
2022/04/30 04:20:25;;;;;;;17.00;11.27;;;;;;;;;;5031125;28;20622;-72
2022/04/30 04:22:55;;;;;;;13.97;10.90;;;;;;;;;;5030598;28;20263;-73
2022/04/30 04:28:11;;;;;;;12.93;11.50;;;;;;;;;;5029768;28;20238;-73
2022/04/30 04:30:40;;;;;;;15.70;10.40;;;;;;;;;;5024896;28;20207;-73
2022/04/30 04:33:08;;;;;;;16.07;10.83;;;;;;;;;;5031910;28;20214;-73
2022/04/30 04:35:37;;;;;;;17.33;11.10;;;;;;;;;;5028540;28;20219;-73
2022/04/30 04:38:05;;;;;;;15.13;10.70;;;;;;;;;;5028037;28;20220;-72
2022/04/30 04:40:35;;;;;;;14.87;10.70;;;;;;;;;;5029576;28;20204;-73
2022/04/30 04:43:03;;;;;;;16.17;11.10;;;;;;;;;;5020086;28;20757;-73
2022/04/30 04:45:36;;;;;;;15.27;11.00;;;;;;;;;;5027937;28;20302;-72
2022/04/30 04:48:04;;;;;;;15.20;11.13;;;;;;;;;;5029822;28;20223;-73
2022/04/30 04:50:33;;;;;;;13.90;10.50;;;;;;;;;;5031175;28;20660;-72
2022/04/30 04:53:01;;;;;;;16.03;11.27;;;;;;;;;;5029554;28;20201;-73
2022/04/30 04:55:29;;;;;;;13.87;10.50;;;;;;;;;;5031624;28;20207;-73
2022/04/30 04:57:59;;;;;;;13.37;10.20;;;;;;;;;;5033815;28;20232;-73
2022/04/30 05:00:28;;;;;;;16.17;10.63;;;;;;;;;;5034224;28;20208;-73
2022/04/30 05:02:56;;;;;;;15.10;10.53;;;;;;;;;;5032774;28;20203;-73
2022/04/30 05:05:25;;;;;;;19.37;11.70;;;;;;;;;;5034170;28;20242;-73
2022/04/30 05:07:54;;;;;;;13.07;10.43;;;;;;;;;;5035998;28;20223;-73
2022/04/30 05:10:22;;;;;;;14.00;10.87;;;;;;;;;;5034152;28;20203;-73
2022/04/30 05:12:51;;;;;;;13.80;10.80;;;;;;;;;;5033050;28;20200;-73
2022/04/30 05:15:21;;;;;;;16.07;11.07;;;;;;;;;;5024429;28;20601;-73
2022/04/30 05:17:49;;;;;;;12.97;11.17;;;;;;;;;;5033868;28;20227;-73
2022/04/30 05:20:18;;;;;;;12.90;11.13;;;;;;;;;;5033519;28;20218;-73
2022/04/30 05:23:06;;;;;;;15.30;11.27;;;;;;;;;;5025065;28;20231;-73
2022/04/30 05:25:35;;;;;;;12.90;11.00;;;;;;;;;;5033659;28;20208;-73
2022/04/30 05:28:03;;;;;;;13.90;11.03;;;;;;;;;;5033614;28;20264;-73
2022/04/30 05:30:33;;;;;;;14.37;10.93;;;;;;;;;;5032485;28;20206;-73
2022/04/30 05:33:01;;;;;;;14.67;10.37;;;;;;;;;;5032951;28;20261;-72
2022/04/30 05:35:30;;;;;;;16.13;11.50;;;;;;;;;;5030552;28;20200;-72
2022/04/30 05:37:58;;;;;;;15.80;10.97;;;;;;;;;;5035384;28;20238;-72
2022/04/30 05:40:27;;;;;;;14.43;11.73;;;;;;;;;;5027244;28;20294;-73
2022/04/30 05:42:55;;;;;;;15.47;10.63;;;;;;;;;;5033291;28;20205;-72
2022/04/30 05:45:24;;;;;;;14.30;11.20;;;;;;;;;;5033818;28;20340;-73
2022/04/30 05:47:53;;;;;;;16.00;11.03;;;;;;;;;;5034295;28;20228;-72
2022/04/30 05:50:22;;;;;;;14.63;11.17;;;;;;;;;;5031212;28;20211;-73
2022/04/30 05:52:50;;;;;;;17.23;10.57;;;;;;;;;;5033177;28;20258;-72
2022/04/30 05:55:19;;;;;;;13.47;11.03;;;;;;;;;;5033080;28;20196;-72
2022/04/30 05:57:50;;;;;;;13.30;10.80;;;;;;;;;;5028941;28;20687;-73
2022/04/30 06:00:19;;;;;;;14.93;10.50;;;;;;;;;;5029457;28;20295;-72
2022/04/30 06:02:48;;;;;;;13.53;10.30;;;;;;;;;;5033830;28;20212;-72
2022/04/30 06:05:19;;;;;;;12.73;10.63;;;;;;;;;;5034003;28;20272;-73
2022/04/30 06:07:48;;;;;;;12.93;10.43;;;;;;;;;;5032346;28;20640;-72
2022/04/30 06:10:17;;;;;;;16.47;10.53;;;;;;;;;;5028669;28;20204;-73
2022/04/30 06:12:46;;;;;;;15.20;10.63;;;;;;;;;;5029829;28;20211;-74
2022/04/30 06:15:14;;;;;;;15.33;10.70;;;;;;;;;;5032445;28;20607;-73
2022/04/30 06:17:43;;;;;;;15.07;10.47;;;;;;;;;;5027746;28;20228;-73
2022/04/30 06:20:12;;;;;;;10.93;9.80;;;;;;;;;;5028042;28;20204;-72
2022/04/30 06:22:42;;;;;;;14.17;11.00;;;;;;;;;;5024103;28;20235;-73
2022/04/30 06:25:11;;;;;;;12.73;10.50;;;;;;;;;;5024996;28;20220;-75
2022/04/30 06:27:41;;;;;;;12.60;10.03;;;;;;;;;;5032216;28;20212;-72
2022/04/30 06:30:11;;;;;;;13.73;10.40;;;;;;;;;;5027456;28;20223;-72
2022/04/30 06:32:40;;;;;;;14.27;10.20;;;;;;;;;;5029143;28;20203;-72
2022/04/30 06:35:09;;;;;;;12.43;10.17;;;;;;;;;;5029503;28;20283;-74
2022/04/30 06:37:40;;;;;;;13.00;10.43;;;;;;;;;;5034208;28;20236;-74
2022/04/30 06:40:13;;;;;;;12.27;9.77;;;;;;;;;;5031841;28;20236;-73
2022/04/30 06:42:45;;;;;;;15.33;10.00;;;;;;;;;;5031017;28;20561;-73
2022/04/30 06:45:14;;;;;;;15.23;9.57;;;;;;;;;;5032952;28;20204;-73
2022/04/30 06:47:43;;;;;;;13.43;9.43;;;;;;;;;;5032999;28;20212;-73
2022/04/30 06:50:12;;;;;;;17.37;10.43;;;;;;;;;;5030654;28;20246;-72
2022/04/30 06:57:07;;;;;;;14.20;9.13;;;;;;;;;;5033468;28;20192;-74
2022/04/30 06:58:17;;;;;;;15.23;10.00;;;;;;;;;;5029640;28;21027;-73
2022/04/30 07:03:32;;;;;;;12.73;9.57;;;;;;;;;;5024392;28;20289;-74
2022/04/30 07:06:04;;;;;;;12.30;8.70;;;;;;;;;;5024461;28;20585;-73
2022/04/30 07:08:33;;;;;;;12.77;9.03;;;;;;;;;;5029080;28;20251;-74
2022/04/30 07:11:03;;;;;;;13.03;8.67;;;;;;;;;;5030943;28;20224;-74
2022/04/30 07:13:32;;;;;;;14.67;9.40;;;;;;;;;;5032159;28;20217;-74
2022/04/30 07:16:00;;;;;;;13.20;9.30;;;;;;;;;;5031031;28;20254;-74
2022/04/30 07:18:30;;;;;;;14.03;9.00;;;;;;;;;;5023765;28;20755;-74
2022/04/30 07:20:58;;;;;;;13.63;8.63;;;;;;;;;;5029642;28;20705;-75
2022/04/30 07:23:27;;;;;;;14.90;9.10;;;;;;;;;;5023492;28;20203;-74
2022/04/30 07:25:57;;;;;;;13.10;8.70;;;;;;;;;;5027150;28;20219;-74
2022/04/30 07:28:30;;;;;;;13.43;8.90;;;;;;;;;;5027317;28;20307;-73
2022/04/30 07:30:58;;;;;;;12.37;8.83;;;;;;;;;;5026645;28;20227;-73
2022/04/30 07:33:27;;;;;;;12.47;8.93;;;;;;;;;;5034685;28;20690;-73
2022/04/30 07:36:01;;;;;;;13.87;9.50;;;;;;;;;;5030417;28;20200;-73
2022/04/30 07:38:30;;;;;;;13.27;8.63;;;;;;;;;;5026273;28;20231;-73
2022/04/30 07:40:58;;;;;;;12.50;8.43;;;;;;;;;;5027874;28;20568;-73
2022/04/30 07:43:28;;;;;;;11.00;8.40;;;;;;;;;;5025423;28;20215;-73
2022/04/30 07:45:56;;;;;;;15.63;9.13;;;;;;;;;;5025384;28;20606;-73
2022/04/30 07:48:26;;;;;;;10.60;8.30;;;;;;;;;;5028729;28;20232;-73
2022/04/30 07:50:57;;;;;;;14.30;8.77;;;;;;;;;;5029949;28;20322;-74
2022/04/30 07:53:26;;;;;;;16.33;9.00;;;;;;;;;;5029940;28;20591;-73
2022/04/30 07:55:55;;;;;;;13.00;8.40;;;;;;;;;;5030733;28;20544;-74
2022/04/30 07:58:25;;;;;;;12.57;8.03;;;;;;;;;;5026416;28;20214;-73
2022/04/30 08:00:55;;;;;;;13.00;8.80;;;;;;;;;;5030859;28;20214;-73
2022/04/30 08:03:23;;;;;;;12.77;8.23;;;;;;;;;;5023864;28;20231;-74
2022/04/30 08:05:53;;;;;;;9.60;8.33;;;;;;;;;;5034965;28;20219;-73
2022/04/30 08:08:23;;;;;;;11.13;8.50;;;;;;;;;;5030287;28;20219;-73
2022/04/30 08:10:54;;;;;;;11.60;7.70;;;;;;;;;;5030775;28;20655;-74
2022/04/30 08:13:23;;;;;;;13.37;7.80;;;;;;;;;;5028170;28;20612;-74
2022/04/30 08:15:52;;;;;;;12.00;8.00;;;;;;;;;;5028179;28;20622;-73
2022/04/30 08:18:24;;;;;;;10.90;8.27;;;;;;;;;;5024476;28;20228;-73
2022/04/30 08:20:52;;;;;;;12.63;8.33;;;;;;;;;;5027735;28;20207;-73
2022/04/30 08:23:23;;;;;;;12.33;8.70;;;;;;;;;;5024494;28;20274;-74
2022/04/30 08:25:51;;;;;;;8.97;7.87;;;;;;;;;;5029461;28;20631;-74
2022/04/30 08:28:20;;;;;;;11.53;8.63;;;;;;;;;;5027373;28;20277;-73
2022/04/30 08:30:48;;;;;;;14.33;8.87;;;;;;;;;;5033145;28;20726;-73
2022/04/30 08:33:17;;;;;;;14.33;8.03;;;;;;;;;;5032156;28;20231;-73
2022/04/30 08:35:48;;;;;;;11.10;8.50;;;;;;;;;;5034549;28;20228;-73
2022/04/30 08:38:17;;;;;;;9.00;7.53;;;;;;;;;;5034967;28;20698;-74
2022/04/30 08:40:46;;;;;;;10.17;7.80;;;;;;;;;;5032196;28;20204;-74
2022/04/30 08:43:15;;;;;;;12.90;8.47;;;;;;;;;;5033259;28;20208;-73
2022/04/30 08:45:45;;;;;;;7.83;6.93;;;;;;;;;;5032446;28;20273;-73
2022/04/30 08:48:15;;;;;;;7.90;7.13;;;;;;;;;;5030551;28;20230;-74
2022/04/30 08:50:47;;;;;;;11.20;7.97;;;;;;;;;;5030955;28;20867;-74
2022/04/30 08:53:17;;;;;;;11.53;8.10;;;;;;;;;;5032802;28;20211;-74
2022/04/30 08:55:45;;;;;;;11.90;8.30;;;;;;;;;;5032100;28;20816;-73
2022/04/30 08:58:15;;;;;;;12.83;8.17;;;;;;;;;;5027906;28;20227;-73
2022/04/30 09:00:44;;;;;;;11.27;8.13;;;;;;;;;;5039291;28;20231;-74
2022/04/30 09:03:14;;;;;;;11.10;8.70;;;;;;;;;;5032927;28;20203;-73
2022/04/30 09:05:43;;;;;;;11.73;8.43;;;;;;;;;;5029272;28;20231;-74
2022/04/30 09:08:12;;;;;;;11.17;8.03;;;;;;;;;;5032535;28;20266;-73
2022/04/30 09:10:42;;;;;;;10.73;8.23;;;;;;;;;;5028297;28;20905;-75
2022/04/30 09:13:12;;;;;;;10.77;7.63;;;;;;;;;;5031140;28;20208;-73
2022/04/30 09:15:41;;;;;;;8.73;6.77;;;;;;;;;;5028532;28;20208;-73
2022/04/30 09:18:10;;;;;;;9.07;7.33;;;;;;;;;;5028981;28;20257;-74
2022/04/30 09:20:46;;;;;;;8.03;5.57;;;;;;;;;;5031936;28;20219;-74
2022/04/30 09:23:25;;;;;;;7.43;5.00;;;;;;;;;;5034186;28;20242;-74
2022/04/30 09:25:56;;;;;;;7.97;4.80;;;;;;;;;;5033747;28;20793;-74
2022/04/30 09:28:25;;;;;;;8.20;4.80;;;;;;;;;;5030509;28;20219;-74
2022/04/30 09:31:04;;;;;;;8.73;5.00;;;;;;;;;;5029511;28;20266;-74
2022/04/30 09:33:33;;;;;;;8.43;5.20;;;;;;;;;;5029004;28;20643;-73
2022/04/30 09:38:51;;;;;;;6.10;5.50;;;;;;;;;;5031037;28;20246;-74
2022/04/30 09:41:24;;;;;;;9.33;5.83;;;;;;;;;;5035488;28;20207;-73
2022/04/30 09:44:00;;;;;;;9.40;5.80;;;;;;;;;;5034523;28;20262;-73
2022/04/30 09:46:29;;;;;;;10.77;5.63;;;;;;;;;;5033769;28;20223;-73
2022/04/30 09:54:30;;;;;;;8.77;5.10;;;;;;;;;;5027646;28;20203;-73
2022/04/30 09:57:00;;;;;;;8.53;5.80;;;;;;;;;;5029638;28;20250;-72
2022/04/30 09:59:31;;;;;;;7.83;5.10;;;;;;;;;;5028649;28;20208;-73
2022/04/30 10:01:59;;;;;;;5.53;4.70;;;;;;;;;;5033277;28;20200;-73
2022/04/30 10:04:28;;;;;;;5.57;4.93;;;;;;;;;;5031256;28;20214;-73
2022/04/30 10:07:00;;;;;;;7.73;5.10;;;;;;;;;;5026385;28;20297;-72
2022/04/30 10:09:31;;;;;;;5.63;4.97;;;;;;;;;;5032942;28;20207;-73
2022/04/30 10:12:03;;;;;;;7.13;5.17;;;;;;;;;;5030944;28;20208;-73
2022/04/30 10:14:52;;;;;;;7.20;4.27;;;;;;;;;;5033075;28;20196;-73
2022/04/30 10:17:23;;;;;;;5.47;4.60;;;;;;;;;;5032286;28;20223;-73
2022/04/30 10:19:59;;;;;;;8.00;4.70;;;;;;;;;;5034269;28;20215;-72
2022/04/30 10:22:28;;;;;;;9.10;5.00;;;;;;;;;;5030679;28;20207;-73
2022/04/30 10:24:57;;;;;;;7.07;4.90;;;;;;;;;;5029614;28;20203;-73
2022/04/30 10:27:38;;;;;;;7.43;4.93;;;;;;;;;;5026999;28;20231;-73
2022/04/30 10:30:07;;;;;;;6.73;4.23;;;;;;;;;;5031523;28;20204;-72
2022/04/30 10:32:37;;;;;;;4.63;4.17;;;;;;;;;;5028576;28;20678;-73
2022/04/30 10:35:06;;;;;;;8.50;5.20;;;;;;;;;;5033664;28;20586;-73
2022/04/30 10:37:35;;;;;;;5.43;4.57;;;;;;;;;;5028638;28;20229;-73
2022/04/30 10:40:05;;;;;;;7.00;4.83;;;;;;;;;;5032046;28;20246;-74
2022/04/30 10:42:43;;;;;;;6.50;4.80;;;;;;;;;;5032035;28;20679;-73
2022/04/30 10:45:15;;;;;;;6.10;5.03;;;;;;;;;;5032924;28;20200;-73
2022/04/30 10:47:50;;;;;;;6.20;4.70;;;;;;;;;;5031509;28;20228;-73
2022/04/30 10:50:19;;;;;;;7.00;5.13;;;;;;;;;;5032834;28;20253;-74
2022/04/30 10:52:48;;;;;;;6.63;4.60;;;;;;;;;;5033181;28;20223;-74
2022/04/30 10:55:18;;;;;;;6.10;4.50;;;;;;;;;;5029813;28;20640;-73
2022/04/30 10:57:48;;;;;;;8.10;4.43;;;;;;;;;;5030766;28;20682;-73
2022/04/30 11:00:17;;;;;;;7.37;4.40;;;;;;;;;;5033453;28;20195;-73
2022/04/30 11:02:49;;;;;;;5.47;4.30;;;;;;;;;;5038482;28;20677;-73
2022/04/30 11:05:23;;;;;;;5.63;4.27;;;;;;;;;;5031550;28;20211;-72
2022/04/30 11:07:52;;;;;;;7.20;4.63;;;;;;;;;;5031997;28;20235;-73
2022/04/30 11:10:20;;;;;;;7.77;4.30;;;;;;;;;;5031961;28;20208;-74
2022/04/30 11:12:50;;;;;;;5.17;4.63;;;;;;;;;;5028346;28;20207;-73
2022/04/30 11:15:22;;;;;;;5.47;4.57;;;;;;;;;;5027935;28;20195;-73
2022/04/30 11:17:52;;;;;;;4.90;4.13;;;;;;;;;;5030829;28;20590;-74
2022/04/30 11:20:23;;;;;;;5.60;3.73;;;;;;;;;;5029104;28;20230;-73
2022/04/30 11:22:53;;;;;;;6.33;3.67;;;;;;;;;;5023510;28;20207;-73
2022/04/30 11:25:21;;;;;;;7.83;3.80;;;;;;;;;;5029878;28;20660;-73
2022/04/30 11:27:58;;;;;;;4.03;3.60;;;;;;;;;;5032467;28;20227;-73
2022/04/30 11:30:26;;;;;;;5.93;3.57;;;;;;;;;;5031457;28;20273;-73
2022/04/30 11:32:59;;;;;;;4.50;3.67;;;;;;;;;;5029187;28;20204;-74
2022/04/30 11:35:35;;;;;;;7.30;3.97;;;;;;;;;;5032137;28;20207;-73
2022/04/30 11:38:10;;;;;;;4.77;3.50;;;;;;;;;;5028258;28;20223;-74
2022/04/30 11:40:42;;;;;;;4.53;3.90;;;;;;;;;;5033516;28;20274;-73
2022/04/30 11:43:11;;;;;;;5.87;3.90;;;;;;;;;;5030370;28;20212;-73
2022/04/30 11:45:44;;;;;;;7.60;4.23;;;;;;;;;;5031288;28;20223;-74
2022/04/30 11:48:13;;;;;;;6.00;3.70;;;;;;;;;;5030479;28;20620;-73
2022/04/30 11:50:42;;;;;;;6.03;4.30;;;;;;;;;;5030371;28;20580;-74
2022/04/30 11:53:11;;;;;;;5.77;4.37;;;;;;;;;;5030217;28;20207;-73
2022/04/30 11:55:40;;;;;;;5.47;4.20;;;;;;;;;;5030108;28;20206;-74
2022/04/30 11:58:08;;;;;;;5.40;3.80;;;;;;;;;;5024736;28;20675;-73
2022/04/30 12:00:58;;;;;;;8.80;4.07;;;;;;;;;;5027049;28;20204;-74
2022/04/30 12:03:27;;;;;;;5.17;3.50;;;;;;;;;;5031103;28;20228;-74
2022/04/30 12:05:57;;;;;;;6.13;3.73;;;;;;;;;;5027620;28;20690;-73
2022/04/30 12:08:28;;;;;;;4.63;3.90;;;;;;;;;;5024024;28;20285;-73
2022/04/30 12:10:57;;;;;;;5.80;4.03;;;;;;;;;;5034299;28;20195;-74
2022/04/30 12:13:28;;;;;;;7.47;4.00;;;;;;;;;;5034999;28;21111;-74
2022/04/30 12:16:08;;;;;;;8.60;5.97;;;;;;;;;;5035952;28;20227;-72
2022/04/30 12:26:58;;;;;;;4.97;3.73;;;;;;;;;;5036200;28;20219;-73
2022/04/30 12:29:27;;;;;;;4.13;3.67;;;;;;;;;;5035890;28;20803;-73
2022/04/30 12:31:56;;;;;;;4.83;3.70;;;;;;;;;;5029878;28;20257;-73
2022/04/30 12:34:27;;;;;;;3.37;3.03;;;;;;;;;;5033616;28;20192;-73
2022/04/30 12:36:57;;;;;;;5.87;3.57;;;;;;;;;;5033820;28;20254;-72
2022/04/30 12:39:26;;;;;;;5.23;3.10;;;;;;;;;;5033699;28;20729;-73
2022/04/30 12:41:57;;;;;;;4.07;3.20;;;;;;;;;;5030273;28;20204;-73
2022/04/30 12:44:26;;;;;;;4.67;3.50;;;;;;;;;;5035065;28;20195;-73
2022/04/30 12:46:57;;;;;;;5.30;3.10;;;;;;;;;;5033513;28;20220;-73
2022/04/30 12:49:26;;;;;;;4.17;2.87;;;;;;;;;;5016495;28;20698;-73
2022/04/30 12:51:55;;;;;;;4.33;2.83;;;;;;;;;;5028756;28;20203;-72
2022/04/30 12:54:23;;;;;;;5.77;3.13;;;;;;;;;;5029499;28;20204;-74
2022/04/30 12:56:52;;;;;;;3.80;2.83;;;;;;;;;;5027160;28;20603;-73
2022/04/30 12:59:20;;;;;;;4.03;2.93;;;;;;;;;;5035259;28;20607;-72
2022/04/30 13:01:49;;;;;;;5.70;2.90;;;;;;;;;;5033478;28;20200;-73
2022/04/30 13:04:19;;;;;;;3.70;3.03;;;;;;;;;;4683779;28;9999873;-74
2022/04/30 13:06:48;;;;;;;5.93;2.90;;;;;;;;;;5033250;28;20659;-73
2022/04/30 13:14:49;;;;;;;3.70;2.83;;;;;;;;;;5030393;28;20206;-74
2022/04/30 13:17:17;;;;;;;4.10;2.70;;;;;;;;;;5033788;28;20632;-73
2022/04/30 13:19:47;;;;;;;6.27;2.73;;;;;;;;;;5034591;28;20254;-72
2022/04/30 13:22:16;;;;;;;3.77;2.73;;;;;;;;;;5033835;28;20207;-74
2022/04/30 13:24:44;;;;;;;6.10;2.90;;;;;;;;;;5029193;28;20219;-73
2022/04/30 13:27:12;;;;;;;3.50;2.67;;;;;;;;;;5030091;28;20619;-75
2022/04/30 13:29:41;;;;;;;5.10;2.97;;;;;;;;;;5034291;28;20227;-74
2022/04/30 13:32:11;;;;;;;4.70;3.23;;;;;;;;;;5034766;28;20208;-74
2022/04/30 13:34:39;;;;;;;3.03;2.57;;;;;;;;;;5033787;28;20254;-74
2022/04/30 13:37:09;;;;;;;4.40;2.80;;;;;;;;;;5027276;28;20220;-75
2022/04/30 13:39:38;;;;;;;4.40;2.70;;;;;;;;;;5032108;28;20643;-74
2022/04/30 13:42:07;;;;;;;5.07;2.77;;;;;;;;;;5034634;28;20540;-73
2022/04/30 13:44:35;;;;;;;5.83;2.73;;;;;;;;;;5034888;28;20214;-74
2022/04/30 13:47:04;;;;;;;5.97;3.00;;;;;;;;;;5028027;28;20221;-74
2022/04/30 13:49:32;;;;;;;4.40;2.70;;;;;;;;;;5034418;28;20215;-73
2022/04/30 13:52:01;;;;;;;3.50;2.50;;;;;;;;;;5034212;28;20261;-75
2022/04/30 13:54:31;;;;;;;5.10;2.80;;;;;;;;;;4675560;28;10000579;-73
2022/04/30 13:57:00;;;;;;;3.67;2.60;;;;;;;;;;5030075;28;20242;-74
2022/04/30 13:59:33;;;;;;;5.87;2.60;;;;;;;;;;5030660;28;20196;-75
2022/04/30 14:02:02;;;;;;;3.30;2.77;;;;;;;;;;5024990;28;20207;-74
2022/04/30 14:04:33;;;;;;;4.10;2.70;;;;;;;;;;5027697;28;20204;-74
2022/04/30 14:07:02;;;;;;;3.77;2.60;;;;;;;;;;5030547;28;20227;-73
2022/04/30 14:09:32;;;;;;;3.40;2.23;;;;;;;;;;5028487;28;20223;-73
2022/04/30 14:12:00;;;;;;;3.43;2.23;;;;;;;;;;5032499;28;20212;-74
2022/04/30 14:20:01;;;;;;;3.23;2.40;;;;;;;;;;5029891;28;20192;-73
2022/04/30 14:22:29;;;;;;;4.70;2.43;;;;;;;;;;5028437;28;20212;-73
2022/04/30 14:24:59;;;;;;;3.97;2.57;;;;;;;;;;5031142;28;20196;-73
2022/04/30 14:27:28;;;;;;;3.87;2.43;;;;;;;;;;5028897;28;20215;-74
2022/04/30 14:29:56;;;;;;;3.17;2.47;;;;;;;;;;5030386;28;20326;-73
2022/04/30 14:32:25;;;;;;;4.63;3.10;;;;;;;;;;5032972;28;20295;-74
2022/04/30 14:34:55;;;;;;;4.10;2.50;;;;;;;;;;5032182;28;20196;-75
2022/04/30 14:37:25;;;;;;;2.93;2.43;;;;;;;;;;5031276;28;20627;-73
2022/04/30 14:39:54;;;;;;;4.43;2.90;;;;;;;;;;5031908;28;20192;-74
2022/04/30 14:42:25;;;;;;;4.60;2.50;;;;;;;;;;5032156;28;20208;-74
2022/04/30 14:44:53;;;;;;;4.53;3.10;;;;;;;;;;5027213;28;20267;-74
2022/04/30 14:47:22;;;;;;;5.90;2.97;;;;;;;;;;5032493;28;20614;-75
2022/04/30 14:50:06;;;;;;;7.13;3.13;;;;;;;;;;5033262;28;20223;-74
2022/04/30 14:52:35;;;;;;;4.30;2.80;;;;;;;;;;5030840;28;20204;-74
2022/04/30 14:55:05;;;;;;;6.27;3.10;;;;;;;;;;5020416;28;20200;-74
2022/04/30 14:57:35;;;;;;;6.17;2.77;;;;;;;;;;5030668;28;20235;-74
2022/04/30 15:00:04;;;;;;;3.87;3.37;;;;;;;;;;5022258;28;20254;-73
2022/04/30 15:02:33;;;;;;;3.77;3.47;;;;;;;;;;5029030;28;20249;-74
2022/04/30 15:05:01;;;;;;;3.03;2.83;;;;;;;;;;5026936;28;20204;-75
2022/04/30 15:07:30;;;;;;;5.27;3.40;;;;;;;;;;5030045;28;20232;-75
2022/04/30 15:09:58;;;;;;;4.10;2.90;;;;;;;;;;5029061;28;20265;-73
2022/04/30 15:12:27;;;;;;;4.83;3.30;;;;;;;;;;5030642;28;20207;-75
2022/04/30 15:14:57;;;;;;;6.73;3.50;;;;;;;;;;5025815;28;20204;-73
2022/04/30 15:17:25;;;;;;;5.13;3.70;;;;;;;;;;5027108;28;20224;-74
2022/04/30 15:19:54;;;;;;;3.87;3.17;;;;;;;;;;5027318;28;20573;-74
2022/04/30 15:22:22;;;;;;;3.87;3.10;;;;;;;;;;5023732;28;20233;-75
2022/04/30 15:24:51;;;;;;;4.17;3.77;;;;;;;;;;5028708;28;20624;-74
2022/04/30 15:27:19;;;;;;;3.60;3.30;;;;;;;;;;5029116;28;20227;-73
2022/04/30 15:29:47;;;;;;;3.53;3.23;;;;;;;;;;5029847;28;20268;-73
2022/04/30 15:32:17;;;;;;;4.50;3.33;;;;;;;;;;5016963;28;20234;-72
2022/04/30 15:34:46;;;;;;;6.60;3.40;;;;;;;;;;5027071;28;20219;-74
2022/04/30 15:37:14;;;;;;;6.03;3.50;;;;;;;;;;5022763;28;20231;-74
2022/04/30 15:39:43;;;;;;;5.40;3.33;;;;;;;;;;4679787;28;9999883;-73